Time;durP1;ratioP1;P1;durP2;ratioP2;P2;SDS_P1;SDS_P2;PMS_P1;PMS_P2;Temp;Humidity;BMP_temperature;BMP_pressure;BME280_temperature;BME280_humidity;BME280_pressure;Samples;Min_cycle;Max_cycle;Signal;HPM_P1;HPM_P2
2024/02/13 00:00:12;;;;;;;156.60;147.43;;;9.00;99.90;;;;;;5029487;28;20040;-77
2024/02/13 00:02:38;;;;;;;147.15;138.80;;;9.00;99.90;;;;;;5014280;28;20030;-78
2024/02/13 00:05:07;;;;;;;172.35;162.18;;;9.00;99.90;;;;;;5013894;28;20038;-78
2024/02/13 00:07:34;;;;;;;198.68;187.38;;;9.00;99.90;;;;;;5028817;28;20505;-77
2024/02/13 00:10:01;;;;;;;197.35;185.98;;;8.90;99.90;;;;;;5026370;28;20482;-78
2024/02/13 00:12:28;;;;;;;193.55;182.02;;;8.90;99.90;;;;;;5022052;28;20079;-77
2024/02/13 00:14:55;;;;;;;191.75;181.23;;;9.00;99.90;;;;;;5014277;28;20041;-78
2024/02/13 00:17:23;;;;;;;174.55;164.85;;;8.90;99.90;;;;;;5031007;28;20045;-77
2024/02/13 00:19:50;;;;;;;162.90;153.90;;;9.00;99.90;;;;;;5032327;28;20535;-77
2024/02/13 00:22:16;;;;;;;174.18;164.27;;;8.90;99.90;;;;;;5031877;28;20044;-78
2024/02/13 00:24:43;;;;;;;171.57;162.13;;;8.90;99.90;;;;;;5033788;28;20029;-78
2024/02/13 00:27:09;;;;;;;184.73;174.27;;;8.90;99.90;;;;;;5032976;28;20048;-78
2024/02/13 00:29:35;;;;;;;195.57;184.63;;;8.80;99.90;;;;;;5032563;28;20049;-78
2024/02/13 00:32:02;;;;;;;183.27;173.23;;;8.70;99.90;;;;;;5032049;28;20037;-78
2024/02/13 00:34:28;;;;;;;185.27;174.35;;;8.60;99.90;;;;;;5031441;28;20037;-78
2024/02/13 00:36:55;;;;;;;151.55;142.55;;;8.60;99.90;;;;;;5027680;28;20021;-77
2024/02/13 00:39:21;;;;;;;192.60;181.80;;;8.60;99.90;;;;;;5026060;28;20037;-78
2024/02/13 00:41:48;;;;;;;170.60;160.90;;;8.50;99.90;;;;;;5032819;28;20647;-77
2024/02/13 00:44:14;;;;;;;174.73;165.25;;;8.50;99.90;;;;;;5033139;28;20044;-77
2024/02/13 00:46:40;;;;;;;133.43;126.10;;;8.50;99.90;;;;;;5032283;28;20038;-78
2024/02/13 00:49:06;;;;;;;151.45;142.63;;;8.50;99.90;;;;;;5031255;28;20501;-77
2024/02/13 00:51:33;;;;;;;156.85;148.20;;;8.50;99.90;;;;;;5024083;28;20037;-78
2024/02/13 00:53:59;;;;;;;158.02;148.70;;;8.60;99.90;;;;;;5031704;28;20033;-77
2024/02/13 00:56:25;;;;;;;151.07;142.45;;;8.50;99.90;;;;;;5024895;28;20030;-78
2024/02/13 00:58:51;;;;;;;151.43;143.10;;;8.60;99.90;;;;;;5032526;28;20050;-78
2024/02/13 01:01:17;;;;;;;175.05;164.75;;;8.60;99.90;;;;;;5031862;28;20423;-77
2024/02/13 01:03:44;;;;;;;173.63;163.55;;;8.50;99.90;;;;;;5032755;28;20031;-78
2024/02/13 01:06:10;;;;;;;173.93;163.80;;;8.50;99.90;;;;;;5032335;28;20049;-77
2024/02/13 01:08:37;;;;;;;159.63;150.85;;;8.50;99.90;;;;;;5032347;28;20029;-78
2024/02/13 01:11:03;;;;;;;153.25;144.68;;;8.50;99.90;;;;;;5025435;28;20045;-77
2024/02/13 01:13:31;;;;;;;131.13;123.93;;;8.50;99.90;;;;;;5032847;28;20046;-77
2024/02/13 01:15:57;;;;;;;200.48;189.10;;;8.40;99.90;;;;;;5037046;28;20478;-78
2024/02/13 01:18:24;;;;;;;152.20;143.48;;;8.40;99.90;;;;;;5035812;28;20048;-78
2024/02/13 01:20:50;;;;;;;138.25;130.57;;;8.40;99.90;;;;;;5032044;28;20086;-77
2024/02/13 01:23:16;;;;;;;168.73;159.25;;;8.30;99.90;;;;;;5031007;28;20482;-77
2024/02/13 01:25:42;;;;;;;140.80;132.43;;;8.30;99.90;;;;;;5031523;28;20026;-77
2024/02/13 01:28:08;;;;;;;151.13;141.68;;;8.30;99.90;;;;;;5031919;28;20037;-77
2024/02/13 01:30:35;;;;;;;152.75;143.77;;;8.30;99.90;;;;;;5031223;28;20041;-78
2024/02/13 01:33:01;;;;;;;137.25;128.90;;;8.30;99.90;;;;;;5031857;28;20045;-77
2024/02/13 01:35:27;;;;;;;137.88;129.95;;;8.30;99.90;;;;;;5030650;28;20041;-78
2024/02/13 01:37:54;;;;;;;144.85;135.80;;;8.30;99.90;;;;;;5032055;28;20029;-78
2024/02/13 01:40:20;;;;;;;151.55;142.35;;;8.30;99.90;;;;;;5030500;28;20041;-77
2024/02/13 01:42:48;;;;;;;157.45;148.32;;;8.30;99.90;;;;;;5031428;28;20041;-78
2024/02/13 01:45:14;;;;;;;160.85;151.40;;;8.30;99.90;;;;;;5031212;28;20041;-78
2024/02/13 01:47:42;;;;;;;148.88;140.07;;;8.20;99.90;;;;;;5030496;28;20044;-78
2024/02/13 01:50:09;;;;;;;146.63;138.20;;;8.20;99.90;;;;;;5030474;28;20482;-77
2024/02/13 01:52:35;;;;;;;147.45;138.60;;;8.20;99.90;;;;;;5029378;28;20037;-78
2024/02/13 01:55:02;;;;;;;154.65;145.20;;;8.20;99.90;;;;;;5015409;28;20477;-77
2024/02/13 01:57:34;;;;;;;156.38;147.38;;;8.10;99.90;;;;;;5029698;28;20041;-78
2024/02/13 02:00:02;;;;;;;188.27;177.18;;;8.10;99.90;;;;;;5031338;28;20037;-77
2024/02/13 02:02:32;;;;;;;168.00;157.32;;;8.10;99.90;;;;;;5028811;28;20037;-77
2024/02/13 02:04:59;;;;;;;150.13;141.30;;;8.10;99.90;;;;;;5030643;28;20057;-77
2024/02/13 02:07:27;;;;;;;198.18;186.85;;;8.00;99.90;;;;;;5031563;28;20033;-77
2024/02/13 02:09:54;;;;;;;198.88;187.43;;;8.00;99.90;;;;;;5026083;28;20030;-77
2024/02/13 02:12:20;;;;;;;155.38;146.60;;;8.00;99.90;;;;;;5027439;28;20034;-77
2024/02/13 02:14:46;;;;;;;146.07;137.80;;;7.90;99.90;;;;;;5028086;28;20052;-77
2024/02/13 02:17:12;;;;;;;126.13;118.57;;;7.70;99.90;;;;;;5030365;28;20471;-77
2024/02/13 02:19:39;;;;;;;166.63;157.40;;;7.80;99.90;;;;;;5029423;28;20040;-77
2024/02/13 02:22:06;;;;;;;164.10;154.95;;;7.80;99.90;;;;;;5027866;28;20362;-77
2024/02/13 02:24:35;;;;;;;181.10;170.98;;;7.80;99.90;;;;;;5030699;28;20049;-77
2024/02/13 02:27:02;;;;;;;159.47;150.70;;;7.80;99.90;;;;;;5031399;28;20030;-77
2024/02/13 02:29:29;;;;;;;182.80;172.37;;;7.80;99.90;;;;;;5029655;28;20033;-77
2024/02/13 02:31:56;;;;;;;188.00;177.50;;;7.80;99.90;;;;;;5030394;28;20041;-77
2024/02/13 02:34:23;;;;;;;165.65;156.50;;;7.70;99.90;;;;;;5032068;28;20505;-77
2024/02/13 02:36:50;;;;;;;123.20;115.90;;;7.70;99.90;;;;;;5035079;28;20052;-77
2024/02/13 02:39:17;;;;;;;147.18;139.05;;;7.70;99.90;;;;;;5034237;28;20045;-77
2024/02/13 02:41:43;;;;;;;138.70;130.80;;;7.70;99.90;;;;;;5028331;28;20395;-77
2024/02/13 02:44:09;;;;;;;159.03;150.00;;;7.70;99.90;;;;;;5034739;28;20036;-77
2024/02/13 02:46:36;;;;;;;166.10;156.85;;;7.70;99.90;;;;;;5033407;28;20037;-77
2024/02/13 02:49:02;;;;;;;165.43;155.60;;;7.70;99.90;;;;;;5035181;28;20025;-77
2024/02/13 02:51:28;;;;;;;172.95;162.93;;;7.70;99.90;;;;;;5034173;28;20040;-77
2024/02/13 02:53:54;;;;;;;187.15;176.18;;;7.70;99.90;;;;;;5034044;28;20402;-77
2024/02/13 02:56:21;;;;;;;111.73;105.37;;;7.60;99.90;;;;;;5034551;28;20040;-77
2024/02/13 02:58:47;;;;;;;119.37;112.67;;;7.60;99.90;;;;;;5032807;28;20660;-77
2024/02/13 03:01:13;;;;;;;160.02;150.85;;;7.60;99.90;;;;;;5024290;28;20041;-77
2024/02/13 03:03:39;;;;;;;176.25;166.32;;;7.60;99.90;;;;;;5030185;28;20049;-77
2024/02/13 03:06:07;;;;;;;179.60;169.13;;;7.60;99.90;;;;;;5029354;28;20029;-77
2024/02/13 03:08:33;;;;;;;207.40;195.48;;;7.60;99.90;;;;;;5033114;28;20034;-77
2024/02/13 03:10:59;;;;;;;166.88;157.75;;;7.60;99.90;;;;;;5032385;28;20033;-77
2024/02/13 03:13:26;;;;;;;161.07;151.13;;;7.70;99.90;;;;;;5033308;28;20045;-77
2024/02/13 03:15:52;;;;;;;169.93;160.23;;;7.70;99.90;;;;;;5032859;28;20040;-77
2024/02/13 03:18:18;;;;;;;181.77;171.27;;;7.60;99.90;;;;;;5029409;28;20034;-77
2024/02/13 03:20:44;;;;;;;179.00;168.67;;;7.60;99.90;;;;;;5027810;28;20487;-77
2024/02/13 03:23:10;;;;;;;216.95;204.68;;;7.60;99.90;;;;;;5032917;28;20025;-77
2024/02/13 03:25:36;;;;;;;188.32;177.65;;;7.60;99.90;;;;;;5031155;28;20679;-77
2024/02/13 03:28:04;;;;;;;154.48;145.93;;;7.60;99.90;;;;;;5031535;28;20048;-77
2024/02/13 03:30:30;;;;;;;151.68;142.77;;;7.60;99.90;;;;;;5030873;28;20053;-77
2024/02/13 03:32:56;;;;;;;213.40;201.50;;;7.60;99.90;;;;;;5033208;28;20057;-77
2024/02/13 03:35:22;;;;;;;194.60;183.35;;;7.50;99.90;;;;;;5031910;28;20490;-77
2024/02/13 03:37:48;;;;;;;195.90;184.90;;;7.50;99.90;;;;;;5032498;28;20033;-78
2024/02/13 03:40:16;;;;;;;208.88;197.23;;;7.50;99.90;;;;;;5032794;28;20026;-78
2024/02/13 03:42:43;;;;;;;191.25;180.18;;;7.60;99.90;;;;;;5033082;28;20057;-77
2024/02/13 03:45:10;;;;;;;151.43;142.93;;;7.50;99.90;;;;;;5030881;28;20025;-76
2024/02/13 03:47:38;;;;;;;151.18;142.77;;;7.40;99.90;;;;;;5029101;28;20049;-78
2024/02/13 03:50:06;;;;;;;127.05;119.50;;;7.40;99.90;;;;;;5034141;28;20042;-77
2024/02/13 03:52:35;;;;;;;106.53;100.43;;;7.40;99.90;;;;;;5032901;28;20058;-77
2024/02/13 03:55:04;;;;;;;125.90;119.00;;;7.10;99.90;;;;;;5033534;28;20069;-77
2024/02/13 03:57:30;;;;;;;100.63;95.20;;;7.00;99.90;;;;;;5014982;28;20045;-77
2024/02/13 03:59:56;;;;;;;147.23;139.10;;;6.80;99.90;;;;;;5059053;28;20026;-77
2024/02/13 04:02:22;;;;;;;136.73;129.30;;;6.80;99.90;;;;;;5031589;28;20478;-77
2024/02/13 04:04:49;;;;;;;144.13;136.17;;;6.90;99.90;;;;;;5033520;28;20029;-77
2024/02/13 04:07:15;;;;;;;156.20;147.27;;;6.90;99.90;;;;;;5031973;28;20033;-77
2024/02/13 04:09:42;;;;;;;120.27;113.83;;;7.00;99.90;;;;;;5031164;28;20044;-77
2024/02/13 04:12:09;;;;;;;106.27;100.37;;;7.10;99.90;;;;;;5029014;28;20076;-77
2024/02/13 04:14:38;;;;;;;145.83;137.60;;;7.20;99.90;;;;;;5033352;28;20037;-77
2024/02/13 04:17:04;;;;;;;160.20;151.37;;;7.20;99.90;;;;;;5032000;28;20402;-77
2024/02/13 04:19:30;;;;;;;137.43;129.77;;;7.20;99.90;;;;;;5032703;28;20485;-77
2024/02/13 04:21:56;;;;;;;130.23;123.27;;;7.10;99.90;;;;;;5032782;28;20029;-77
2024/02/13 04:24:22;;;;;;;146.20;138.30;;;7.00;99.90;;;;;;5033654;28;20144;-77
2024/02/13 04:26:48;;;;;;;140.93;132.77;;;7.00;99.90;;;;;;5031490;28;20052;-77
2024/02/13 04:29:14;;;;;;;137.23;129.03;;;6.80;99.90;;;;;;5033563;28;20608;-77
2024/02/13 04:31:42;;;;;;;141.90;134.03;;;6.80;99.90;;;;;;5032576;28;20045;-78
2024/02/13 04:34:08;;;;;;;217.33;204.77;;;6.80;99.90;;;;;;5032570;28;20053;-77
2024/02/13 04:36:37;;;;;;;228.67;216.13;;;6.70;99.90;;;;;;5030284;28;20049;-78
2024/02/13 04:39:03;;;;;;;173.40;163.83;;;6.40;99.90;;;;;;5039661;28;20409;-78
2024/02/13 04:41:30;;;;;;;158.53;149.90;;;6.30;99.90;;;;;;5032301;28;20045;-78
2024/02/13 04:43:56;;;;;;;149.23;140.77;;;6.30;99.90;;;;;;5032050;28;20402;-78
2024/02/13 04:46:25;;;;;;;147.43;139.13;;;6.40;99.90;;;;;;5031538;28;20037;-77
2024/02/13 04:48:52;;;;;;;212.30;199.83;;;6.50;99.90;;;;;;5016446;28;20045;-78
2024/02/13 04:51:18;;;;;;;189.97;178.80;;;6.50;99.90;;;;;;5029559;28;20037;-77
2024/02/13 04:53:44;;;;;;;161.77;152.40;;;6.40;99.90;;;;;;5031948;28;20045;-78
2024/02/13 04:56:10;;;;;;;200.23;188.87;;;6.30;99.90;;;;;;5031745;28;20029;-78
2024/02/13 04:58:36;;;;;;;177.80;167.50;;;6.20;99.90;;;;;;5032137;28;20394;-78
2024/02/13 05:01:05;;;;;;;191.60;180.70;;;6.30;99.90;;;;;;5030439;28;20505;-77
2024/02/13 05:08:58;;;;;;;143.37;135.37;;;6.20;99.90;;;;;;5038970;28;20024;-77
2024/02/13 05:11:27;;;;;;;171.90;162.23;;;6.30;99.90;;;;;;5031533;28;20372;-77
2024/02/13 05:13:54;;;;;;;161.53;152.30;;;6.40;99.90;;;;;;5030812;28;20044;-78
2024/02/13 05:16:20;;;;;;;167.07;157.27;;;6.50;99.90;;;;;;5028418;28;20403;-78
2024/02/13 05:18:46;;;;;;;175.30;165.50;;;6.40;99.90;;;;;;5032122;28;20041;-78
2024/02/13 05:21:19;;;;;;;185.03;174.67;;;6.10;99.90;;;;;;5031582;28;20542;-76
2024/02/13 05:23:47;;;;;;;148.03;139.57;;;5.90;99.90;;;;;;5032091;28;20060;-77
2024/02/13 05:26:14;;;;;;;134.37;126.47;;;5.90;99.90;;;;;;5030631;28;20042;-76
2024/02/13 05:28:41;;;;;;;124.77;117.33;;;5.90;99.90;;;;;;5031214;28;20482;-76
2024/02/13 05:31:10;;;;;;;123.13;116.43;;;6.00;99.90;;;;;;5031049;28;20454;-75
2024/02/13 05:33:36;;;;;;;128.67;121.23;;;6.10;99.90;;;;;;5032150;28;20034;-77
2024/02/13 05:36:04;;;;;;;128.63;121.43;;;6.10;99.90;;;;;;5031492;28;20030;-77
2024/02/13 05:38:39;;;;;;;111.13;104.80;;;6.10;99.90;;;;;;5029750;28;20045;-77
2024/02/13 05:41:05;;;;;;;114.50;108.20;;;6.10;99.90;;;;;;5031862;28;20383;-77
2024/02/13 05:43:31;;;;;;;146.07;137.97;;;6.10;99.90;;;;;;5031665;28;20028;-77
2024/02/13 05:45:58;;;;;;;146.80;138.67;;;6.10;99.90;;;;;;5030027;28;20041;-77
2024/02/13 05:48:24;;;;;;;216.17;203.70;;;6.20;99.90;;;;;;5031690;28;20505;-77
2024/02/13 05:50:51;;;;;;;211.13;199.03;;;6.30;99.90;;;;;;5031506;28;20041;-77
2024/02/13 05:53:17;;;;;;;186.83;176.23;;;6.30;99.90;;;;;;5021374;28;20407;-77
2024/02/13 05:55:43;;;;;;;120.43;113.57;;;6.30;99.90;;;;;;5031558;28;20025;-77
2024/02/13 05:58:09;;;;;;;145.20;137.07;;;6.20;99.90;;;;;;5029785;28;20045;-77
2024/02/13 06:00:35;;;;;;;142.97;134.63;;;6.00;99.90;;;;;;5030685;28;20044;-77
2024/02/13 06:03:04;;;;;;;158.50;149.47;;;5.90;99.90;;;;;;5031558;28;20042;-78
2024/02/13 06:05:30;;;;;;;166.10;156.53;;;5.70;99.90;;;;;;5030882;28;20045;-79
2024/02/13 06:07:57;;;;;;;156.87;147.97;;;5.60;99.90;;;;;;5030404;28;20028;-77
2024/02/13 06:10:24;;;;;;;142.30;134.23;;;5.60;99.90;;;;;;5028760;28;20398;-77
2024/02/13 06:12:51;;;;;;;151.33;141.87;;;5.60;99.90;;;;;;5031729;28;20382;-77
2024/02/13 06:15:17;;;;;;;160.03;150.57;;;5.70;99.90;;;;;;5029375;28;20041;-77
2024/02/13 06:17:46;;;;;;;158.30;148.90;;;5.70;99.90;;;;;;5031430;28;20048;-77
2024/02/13 06:20:12;;;;;;;153.23;144.00;;;5.70;99.90;;;;;;5030656;28;20367;-77
2024/02/13 06:22:38;;;;;;;145.50;136.97;;;5.70;99.90;;;;;;5031485;28;20060;-77
2024/02/13 06:25:05;;;;;;;130.33;122.77;;;5.80;99.90;;;;;;5031623;28;20032;-78
2024/02/13 06:27:32;;;;;;;152.77;143.60;;;6.00;99.90;;;;;;5030434;28;20048;-77
2024/02/13 06:29:58;;;;;;;153.83;144.30;;;6.00;99.90;;;;;;5030895;28;20060;-77
2024/02/13 06:32:25;;;;;;;155.20;145.67;;;6.00;99.90;;;;;;5030340;28;20046;-77
2024/02/13 06:34:53;;;;;;;138.30;129.80;;;5.90;99.90;;;;;;5030337;28;20041;-77
2024/02/13 06:37:23;;;;;;;95.60;90.00;;;5.70;99.90;;;;;;5029926;28;20037;-77
2024/02/13 06:39:49;;;;;;;156.33;146.90;;;5.60;99.90;;;;;;5030815;28;20481;-77
2024/02/13 06:42:15;;;;;;;128.07;120.17;;;5.50;99.90;;;;;;5030844;28;20048;-77
2024/02/13 06:44:43;;;;;;;106.43;100.43;;;5.40;99.90;;;;;;5030720;28;20490;-77
2024/02/13 06:47:10;;;;;;;171.57;160.80;;;5.40;99.90;;;;;;5030476;28;20368;-77
2024/02/13 06:49:37;;;;;;;116.33;109.43;;;5.40;99.90;;;;;;5030788;28;20045;-77
2024/02/13 06:52:04;;;;;;;151.33;142.53;;;5.20;99.90;;;;;;5029451;28;20026;-77
2024/02/13 06:54:30;;;;;;;97.33;91.60;;;5.30;99.90;;;;;;5031234;28;20045;-78
2024/02/13 06:56:59;;;;;;;149.80;140.97;;;5.30;99.90;;;;;;5031260;28;20029;-77
2024/02/13 06:59:29;;;;;;;173.43;163.47;;;5.30;99.90;;;;;;5043567;28;20040;-77
2024/02/13 07:01:56;;;;;;;135.77;127.60;;;5.30;99.90;;;;;;5033751;28;20048;-77
2024/02/13 07:04:22;;;;;;;140.53;132.50;;;5.40;99.90;;;;;;5031428;28;20026;-77
2024/02/13 07:06:48;;;;;;;127.80;120.07;;;5.50;99.90;;;;;;5030916;28;20033;-77
2024/02/13 07:09:15;;;;;;;123.47;116.03;;;5.50;99.90;;;;;;5030871;28;20395;-77
2024/02/13 07:11:41;;;;;;;126.30;118.97;;;5.50;99.90;;;;;;5031258;28;20026;-77
2024/02/13 07:14:07;;;;;;;133.60;125.80;;;5.40;99.90;;;;;;5030465;28;20049;-77
2024/02/13 07:16:36;;;;;;;113.57;106.50;;;5.40;99.90;;;;;;5029592;28;20379;-77
2024/02/13 07:19:02;;;;;;;113.20;106.30;;;5.40;99.90;;;;;;5027676;28;20049;-77
2024/02/13 07:21:33;;;;;;;128.03;120.50;;;5.40;99.90;;;;;;5031819;28;20040;-77
2024/02/13 07:23:59;;;;;;;161.73;152.30;;;5.40;99.90;;;;;;5033979;28;20033;-76
2024/02/13 07:26:25;;;;;;;121.23;114.20;;;5.50;99.90;;;;;;5032772;28;20367;-76
2024/02/13 07:28:52;;;;;;;136.97;129.23;;;5.50;99.90;;;;;;5033558;28;20033;-77
2024/02/13 07:31:19;;;;;;;165.53;156.17;;;5.60;99.90;;;;;;5032717;28;20425;-76
2024/02/13 07:33:48;;;;;;;219.87;206.37;;;5.70;99.90;;;;;;5033765;28;20061;-76
2024/02/13 07:36:14;;;;;;;166.03;156.07;;;5.60;99.90;;;;;;5033876;28;20036;-76
2024/02/13 07:38:40;;;;;;;212.40;199.97;;;5.50;99.90;;;;;;5033898;28;20486;-76
2024/02/13 07:41:08;;;;;;;182.83;171.83;;;5.50;99.90;;;;;;5031774;28;20037;-77
2024/02/13 07:43:35;;;;;;;181.13;170.30;;;5.50;99.90;;;;;;5034343;28;20030;-77
2024/02/13 07:46:03;;;;;;;200.27;188.13;;;5.50;99.90;;;;;;5046254;28;20409;-78
2024/02/13 07:48:31;;;;;;;158.43;149.03;;;5.50;99.90;;;;;;5033444;28;20037;-76
2024/02/13 07:50:57;;;;;;;139.93;131.43;;;5.50;99.90;;;;;;5034347;28;20037;-77
2024/02/13 07:53:26;;;;;;;168.73;159.17;;;5.60;99.90;;;;;;5033711;28;20033;-76
2024/02/13 07:55:52;;;;;;;213.50;201.13;;;5.60;99.90;;;;;;5031747;28;20032;-77
2024/02/13 07:58:18;;;;;;;241.83;227.27;;;5.70;99.90;;;;;;5033987;28;20026;-77
2024/02/13 08:00:44;;;;;;;182.33;171.87;;;5.70;99.90;;;;;;5032526;28;20029;-77
2024/02/13 08:03:11;;;;;;;221.57;208.37;;;5.80;99.90;;;;;;5019743;28;20455;-77
2024/02/13 08:05:39;;;;;;;213.07;199.80;;;5.90;99.90;;;;;;5017598;28;20026;-77
2024/02/13 08:08:10;;;;;;;214.63;201.37;;;5.90;99.90;;;;;;5027957;28;20053;-77
2024/02/13 08:10:39;;;;;;;;;;;5.90;99.90;;;;;;5017791;28;20038;-78
2024/02/13 08:13:05;;;;;;;160.00;150.87;;;6.00;99.90;;;;;;5029576;28;19909;-77
2024/02/13 08:15:32;;;;;;;173.40;163.07;;;6.10;99.90;;;;;;5028490;28;20044;-75
2024/02/13 08:17:58;;;;;;;110.17;104.03;;;6.50;99.90;;;;;;5032878;28;20025;-77
2024/02/13 08:20:24;;;;;;;167.88;158.32;;;7.00;99.90;;;;;;5031363;28;20501;-84
2024/02/13 08:22:51;;;;;;;153.43;144.82;;;7.50;99.90;;;;;;5015210;28;20029;-81
2024/02/13 08:25:17;;;;;;;223.43;208.93;;;7.80;99.90;;;;;;5028201;28;20025;-75
2024/02/13 08:27:43;;;;;;;209.50;196.13;;;8.20;99.90;;;;;;5031760;28;20041;-78
2024/02/13 08:30:10;;;;;;;251.45;236.80;;;8.40;99.90;;;;;;5031253;28;20025;-81
2024/02/13 08:32:39;;;;;;;251.98;236.75;;;8.60;99.90;;;;;;5030947;28;20033;-72
2024/02/13 08:35:05;;;;;;;213.50;201.00;;;8.70;99.90;;;;;;5032829;28;20053;-75
2024/02/13 08:37:31;;;;;;;216.43;204.20;;;8.70;99.90;;;;;;5028329;28;20382;-73
2024/02/13 08:39:57;;;;;;;234.82;221.20;;;9.00;99.90;;;;;;5033629;28;20025;-73
2024/02/13 08:42:24;;;;;;;268.05;252.13;;;9.20;99.90;;;;;;5029533;28;20045;-72
2024/02/13 08:44:52;;;;;;;241.20;227.32;;;9.30;99.90;;;;;;5032280;28;20033;-77
2024/02/13 08:47:18;;;;;;;253.00;237.98;;;9.50;99.90;;;;;;5031838;28;20046;-73
2024/02/13 08:49:44;;;;;;;219.50;206.70;;;9.70;99.90;;;;;;5033360;28;20030;-78
2024/02/13 08:52:10;;;;;;;153.82;145.48;;;9.80;99.90;;;;;;5032768;28;20044;-78
2024/02/13 08:54:38;;;;;;;151.18;142.98;;;9.90;99.90;;;;;;5029216;28;20041;-78
2024/02/13 08:57:04;;;;;;;188.27;176.32;;;9.80;99.90;;;;;;5029374;28;20382;-78
2024/02/13 08:59:31;;;;;;;257.85;241.18;;;9.80;99.90;;;;;;5038216;28;20120;-78
2024/02/13 09:01:57;;;;;;;186.73;176.35;;;9.60;99.90;;;;;;5025742;28;20021;-78
2024/02/13 09:04:23;;;;;;;172.50;162.80;;;9.40;99.90;;;;;;5032676;28;20029;-79
2024/02/13 09:06:49;;;;;;;229.52;216.13;;;9.30;99.90;;;;;;5028415;28;20478;-79
2024/02/13 09:09:15;;;;;;;258.38;243.10;;;9.20;99.90;;;;;;5024582;28;20037;-78
2024/02/13 09:11:42;;;;;;;298.35;280.38;;;9.10;99.90;;;;;;5027668;28;20393;-78
2024/02/13 09:14:09;;;;;;;277.90;260.77;;;9.10;99.90;;;;;;5032765;28;20466;-78
2024/02/13 09:16:35;;;;;;;271.98;255.93;;;9.10;99.90;;;;;;5030377;28;20056;-78
2024/02/13 09:19:02;;;;;;;307.40;286.48;;;9.10;99.90;;;;;;5030225;28;20033;-78
2024/02/13 09:21:29;;;;;;;241.07;227.00;;;9.20;99.90;;;;;;5029288;28;20402;-78
2024/02/13 09:23:56;;;;;;;240.55;225.05;;;9.20;99.90;;;;;;5032567;28;20034;-78
2024/02/13 09:26:23;;;;;;;251.68;236.35;;;9.30;99.90;;;;;;5031771;28;20430;-78
2024/02/13 09:28:49;;;;;;;216.48;203.95;;;9.50;99.90;;;;;;5025723;28;20505;-78
2024/02/13 09:31:18;;;;;;;227.98;214.77;;;9.60;99.90;;;;;;5026595;28;20037;-78
2024/02/13 09:33:45;;;;;;;241.75;227.93;;;9.80;99.90;;;;;;5029805;28;20033;-79
2024/02/13 09:36:14;;;;;;;225.82;212.38;;;9.90;99.90;;;;;;5023095;28;20045;-79
2024/02/13 09:38:41;;;;;;;186.40;176.02;;;9.90;99.90;;;;;;5022980;28;20056;-79
2024/02/13 09:41:08;;;;;;;215.02;202.30;;;9.90;99.90;;;;;;5031288;28;20037;-77
2024/02/13 09:43:36;;;;;;;163.50;154.63;;;9.90;99.90;;;;;;5026498;28;20037;-79
2024/02/13 09:46:03;;;;;;;159.10;150.55;;;9.90;99.90;;;;;;5029861;28;20383;-79
2024/02/13 09:48:29;;;;;;;159.82;150.73;;;9.90;99.90;;;;;;5030647;28;20041;-79
2024/02/13 09:50:57;;;;;;;191.57;180.93;;;9.90;99.90;;;;;;5030960;28;20029;-79
2024/02/13 09:53:27;;;;;;;157.02;148.45;;;9.90;99.90;;;;;;5032041;28;20017;-79
2024/02/13 09:55:54;;;;;;;165.85;156.85;;;9.80;99.90;;;;;;5029498;28;20049;-78
2024/02/13 09:58:20;;;;;;;181.68;172.07;;;9.80;99.90;;;;;;5028654;28;20518;-79
2024/02/13 10:00:47;;;;;;;167.82;158.75;;;9.80;99.90;;;;;;5029159;28;20046;-78
2024/02/13 10:03:13;;;;;;;165.18;156.38;;;9.80;99.90;;;;;;5028337;28;20030;-79
2024/02/13 10:05:39;;;;;;;159.40;151.00;;;9.80;99.90;;;;;;5030125;28;20037;-79
2024/02/13 10:08:07;;;;;;;173.25;164.15;;;9.80;99.90;;;;;;5029887;28;20034;-78
2024/02/13 10:10:34;;;;;;;184.00;174.07;;;9.80;99.90;;;;;;5030632;28;20045;-78
2024/02/13 10:13:03;;;;;;;161.43;152.77;;;9.80;99.90;;;;;;5031258;28;20029;-78
2024/02/13 10:15:55;;;;;;;173.10;163.77;;;9.80;99.90;;;;;;5027595;28;20041;-78
2024/02/13 10:18:24;;;;;;;208.18;196.77;;;9.80;99.90;;;;;;5021163;28;20041;-78
2024/02/13 10:20:51;;;;;;;230.77;218.07;;;9.70;99.90;;;;;;5030890;28;20037;-78
2024/02/13 10:23:18;;;;;;;210.88;199.10;;;9.70;99.90;;;;;;5029426;28;20037;-78
2024/02/13 10:25:44;;;;;;;214.05;202.35;;;9.70;99.90;;;;;;5030567;28;20502;-78
2024/02/13 10:28:13;;;;;;;199.93;188.70;;;9.70;99.90;;;;;;5029754;28;20045;-78
2024/02/13 10:30:40;;;;;;;193.57;182.80;;;9.70;99.90;;;;;;5030312;28;20037;-78
2024/02/13 10:33:06;;;;;;;180.57;170.82;;;9.70;99.90;;;;;;5031127;28;20037;-78
2024/02/13 10:35:33;;;;;;;185.35;175.40;;;9.70;99.90;;;;;;5029410;28;20045;-78
2024/02/13 10:37:59;;;;;;;181.57;171.65;;;9.70;99.90;;;;;;5023661;28;20034;-78
2024/02/13 10:40:26;;;;;;;183.05;173.00;;;9.70;99.90;;;;;;5022861;28;20475;-78
2024/02/13 10:42:57;;;;;;;179.40;169.38;;;9.60;99.90;;;;;;5029682;28;20045;-79
2024/02/13 10:45:25;;;;;;;243.20;229.10;;;9.60;99.90;;;;;;5030220;28;20056;-85
2024/02/13 10:47:54;;;;;;;180.85;171.13;;;9.70;99.90;;;;;;5010546;28;20050;-79
2024/02/13 10:50:20;;;;;;;203.10;191.82;;;9.70;99.90;;;;;;5022793;28;20537;-79
2024/02/13 10:52:58;;;;;;;198.93;187.90;;;9.70;99.90;;;;;;5030709;28;20038;-79
2024/02/13 10:55:24;;;;;;;193.25;182.65;;;9.70;99.90;;;;;;5030554;28;20045;-80
2024/02/13 10:57:51;;;;;;;174.55;165.07;;;9.70;99.90;;;;;;5034371;28;20162;-80
2024/02/13 11:00:20;;;;;;;167.23;158.25;;;9.70;99.90;;;;;;5033649;28;20040;-80
2024/02/13 11:02:54;;;;;;;194.88;183.95;;;9.70;99.90;;;;;;5034062;28;20049;-80
2024/02/13 11:05:20;;;;;;;166.93;157.93;;;9.70;99.90;;;;;;5030895;28;20037;-80
2024/02/13 11:07:46;;;;;;;157.98;149.23;;;9.70;99.90;;;;;;5033405;28;20033;-80
2024/02/13 11:10:12;;;;;;;175.95;166.60;;;9.70;99.90;;;;;;5033313;28;20390;-80
2024/02/13 11:12:39;;;;;;;185.13;175.13;;;9.80;99.90;;;;;;5028625;28;20479;-80
2024/02/13 11:15:09;;;;;;;188.45;178.02;;;9.90;99.90;;;;;;5034393;28;20049;-80
2024/02/13 11:17:45;;;;;;;158.20;149.80;;;10.00;99.90;;;;;;5034749;28;20029;-80
2024/02/13 11:20:13;;;;;;;158.90;150.27;;;10.10;99.90;;;;;;5032917;28;20030;-80
2024/02/13 11:22:47;;;;;;;613.92;357.88;;;10.10;99.90;;;;;;5034071;28;20038;-80
2024/02/13 11:25:14;;;;;;;171.27;160.90;;;10.20;99.90;;;;;;5032227;28;20037;-80
2024/02/13 11:27:40;;;;;;;1999.90;999.90;;;10.20;99.90;;;;;;5032505;28;20041;-80
2024/02/13 11:30:07;;;;;;;1999.90;999.90;;;10.30;99.90;;;;;;5031278;28;20364;-79
2024/02/13 11:32:37;;;;;;;1999.90;999.90;;;10.40;99.90;;;;;;5033210;28;20034;-80
2024/02/13 11:35:09;;;;;;;1999.90;999.90;;;10.50;99.90;;;;;;5022190;28;20054;-80
2024/02/13 11:37:36;;;;;;;1999.90;999.90;;;10.60;99.90;;;;;;5032747;28;20045;-80
2024/02/13 11:40:06;;;;;;;1999.90;999.90;;;10.60;99.90;;;;;;5034063;28;20347;-80
2024/02/13 11:42:33;;;;;;;1999.90;999.90;;;10.60;99.90;;;;;;5033110;28;20056;-80
2024/02/13 11:45:08;;;;;;;1999.90;999.90;;;10.70;99.90;;;;;;5033577;28;20037;-79
2024/02/13 11:47:35;;;;;;;1999.90;999.90;;;10.70;99.90;;;;;;5032318;28;20037;-79
2024/02/13 11:50:02;;;;;;;1999.90;999.90;;;10.70;99.90;;;;;;5031293;28;20041;-79
2024/02/13 11:52:28;;;;;;;1999.90;999.90;;;10.70;99.90;;;;;;5023053;28;20042;-79
2024/02/13 11:54:55;;;;;;;1999.90;999.90;;;10.80;99.90;;;;;;5033077;28;20501;-80
2024/02/13 11:57:24;;;;;;;1999.90;999.90;;;10.80;99.90;;;;;;5014348;28;20041;-80
2024/02/13 11:59:57;;;;;;;1999.90;999.90;;;10.80;99.90;;;;;;5032359;28;20173;-80
2024/02/13 12:02:23;;;;;;;1999.90;999.90;;;10.80;99.90;;;;;;5032873;28;20049;-80
2024/02/13 12:04:49;;;;;;;1999.90;999.90;;;10.80;99.90;;;;;;5033567;28;20042;-80
2024/02/13 12:07:16;;;;;;;1999.90;999.90;;;10.90;99.90;;;;;;5030924;28;20036;-79
2024/02/13 12:09:42;;;;;;;1999.90;999.90;;;10.80;99.90;;;;;;5050464;28;20026;-79
2024/02/13 12:12:09;;;;;;;1999.90;999.90;;;10.80;99.90;;;;;;5031855;28;20045;-79
2024/02/13 12:14:36;;;;;;;1999.90;999.90;;;10.80;99.90;;;;;;5015265;28;20037;-77
2024/02/13 12:17:10;;;;;;;1999.90;999.90;;;10.70;99.90;;;;;;5028418;28;20398;-78
2024/02/13 12:19:43;;;;;;;1999.90;999.90;;;10.80;99.90;;;;;;5034147;28;20038;-78